Portada
METAR-TAF:

METAR-TAF

Aeroports :

Bou Saâda, Algèria

latitud: 35-20N, longitud: 004-12E, altitud: 461 m

Observació

L'informe es va fer fa 1 hora i 4 minuts, a les 08:00 UTC
Vent 3 kt del Nord/Nord-Est
Temperatura 10°C
Humitat 93%
Pressió 1025 hPa
Visibilitat 10 km o més
sense núvols per sota de 1500 mi sense presència de cumulonimbus.

METAR: DAAD 240800Z 02003KT CAVOK 10/09 Q1025

Hora: 10:04 (09:04 UTC)

Pronòstic

L'informe es va fer fa 1 hora i 4 minuts, a les 08:00 UTC
Pronòstic vàlid del 24 a les 09 UTC al 24 a les 18 UTC
Vent 8 kt del Sud-Est
Visibilitat 10 km o més
sense núvols per sota de 1500 mi sense presència de cumulonimbus.

TAF: DAAD 240800Z 2409/2418 13008KT CAVOK

Observacions i pronòstics meteorològics de més de 4000 aeroports (METAR i TAF).

Les estacions disponibles són els punts grocs i vermells al mapa.

Posi el ratolí al punt desitjat per veure el nom de l'estació.

Feu clic per veure les observacions i els pronòstics meteorològics.

Per canviar el mapa: feu clic els botons verds amb una creu de color negre per apropar; al botó verd amb un guió per allunyar la imatge; o en les fletxes verdes per a mapes adjacents.


METAR-TAF: